createdAt,value
2023-04-19T00:01:45.119Z,61.15
2023-04-19T00:04:15.310Z,62.14
2023-04-19T00:06:44.636Z,62.33
2023-04-19T00:09:13.600Z,61.38
2023-04-19T00:11:42.340Z,60.91
2023-04-19T00:14:10.992Z,61.19
2023-04-19T00:16:39.690Z,62.09
2023-04-19T00:19:08.648Z,61.24
2023-04-19T00:21:37.406Z,60.34
2023-04-19T00:24:06.564Z,60.30
2023-04-19T00:26:35.330Z,59.74
2023-04-19T00:29:04.036Z,58.37
2023-04-19T00:31:32.661Z,57.28
2023-04-19T00:34:01.297Z,56.72
2023-04-19T00:36:29.936Z,56.62
2023-04-19T00:38:58.637Z,56.62
2023-04-19T00:41:27.347Z,55.72
2023-04-19T00:43:56.088Z,54.64
2023-04-19T00:46:25.918Z,54.26
2023-04-19T00:48:54.634Z,54.82
2023-04-19T00:51:23.655Z,53.97
2023-04-19T00:53:52.803Z,54.62
2023-04-19T00:56:22.635Z,55.13
2023-04-19T00:58:51.467Z,55.24
2023-04-19T01:01:20.365Z,55.34
2023-04-19T01:03:49.202Z,56.51
2023-04-19T01:06:17.937Z,56.58
2023-04-19T01:08:46.730Z,57.39
2023-04-19T01:11:15.416Z,57.64
2023-04-19T01:13:44.108Z,57.56
2023-04-19T01:16:12.858Z,57.64
2023-04-19T01:18:41.689Z,57.50
2023-04-19T01:21:10.378Z,57.31
2023-04-19T01:23:39.576Z,57.26
2023-04-19T01:26:08.313Z,57.52
2023-04-19T01:28:37.285Z,57.96
2023-04-19T01:31:06.089Z,57.42
2023-04-19T01:33:34.810Z,57.39
2023-04-19T01:36:03.714Z,57.55
2023-04-19T01:38:32.370Z,57.34
2023-04-19T01:41:01.039Z,57.19
2023-04-19T01:43:29.862Z,57.53
2023-04-19T01:45:58.592Z,57.79
2023-04-19T01:48:27.243Z,57.74
2023-04-19T01:50:55.961Z,58.21
2023-04-19T01:53:24.715Z,58.66
2023-04-19T01:55:53.362Z,59.02
2023-04-19T01:58:22.070Z,59.53
2023-04-19T02:00:50.852Z,59.59
2023-04-19T02:03:19.747Z,59.51
2023-04-19T02:05:48.644Z,59.68
2023-04-19T02:08:17.555Z,59.67
2023-04-19T02:10:46.266Z,59.88
2023-04-19T02:13:14.928Z,60.12
2023-04-19T02:15:43.586Z,60.50
2023-04-19T02:18:13.501Z,60.99
2023-04-19T02:20:42.214Z,61.41
2023-04-19T02:23:10.906Z,61.93
2023-04-19T02:25:39.572Z,62.26
2023-04-19T02:28:08.211Z,62.20
2023-04-19T02:30:37.138Z,62.43
2023-04-19T02:33:06.014Z,62.81
2023-04-19T02:35:34.878Z,63.26
2023-04-19T02:38:04.724Z,63.48
2023-04-19T02:40:33.425Z,63.48
2023-04-19T02:43:04.275Z,63.90
2023-04-19T02:45:32.932Z,64.22
2023-04-19T02:48:02.304Z,64.53
2023-04-19T02:50:32.156Z,64.53
2023-04-19T02:53:00.792Z,64.68
2023-04-19T02:55:29.443Z,65.04
2023-04-19T02:57:58.056Z,65.27
2023-04-19T03:00:26.891Z,65.53
2023-04-19T03:02:56.321Z,66.05
2023-04-19T03:05:25.133Z,66.48
2023-04-19T03:07:53.782Z,66.83
2023-04-19T03:10:22.569Z,66.86
2023-04-19T03:12:51.222Z,67.40
2023-04-19T03:15:20.747Z,67.44
2023-04-19T03:17:49.470Z,67.51
2023-04-19T03:20:19.168Z,67.63
2023-04-19T03:22:48.235Z,67.66
2023-04-19T03:25:17.563Z,68.02
2023-04-19T03:27:48.091Z,68.05
2023-04-19T03:30:18.030Z,68.55
2023-04-19T03:32:47.834Z,68.55
2023-04-19T03:35:16.678Z,68.94
2023-04-19T03:37:45.495Z,69.28
2023-04-19T03:40:14.244Z,69.49
2023-04-19T03:42:42.950Z,70.35
2023-04-19T03:45:11.781Z,70.67
2023-04-19T03:47:40.920Z,71.07
2023-04-19T03:50:10.411Z,71.43
2023-04-19T03:52:39.099Z,71.90
2023-04-19T03:55:08.649Z,72.04
2023-04-19T03:57:37.531Z,72.29
2023-04-19T04:00:09.721Z,72.74
2023-04-19T04:02:39.669Z,72.43
2023-04-19T04:05:08.867Z,72.51
2023-04-19T04:07:37.793Z,72.78
2023-04-19T04:10:07.540Z,72.80
2023-04-19T04:12:36.213Z,72.85
2023-04-19T04:15:05.437Z,73.36
2023-04-19T04:17:34.158Z,72.97
2023-04-19T04:20:03.249Z,73.08
2023-04-19T04:22:32.831Z,73.42
2023-04-19T04:25:02.195Z,73.72
2023-04-19T04:27:30.868Z,73.84
2023-04-19T04:29:59.558Z,73.59
2023-04-19T04:32:28.254Z,73.75
2023-04-19T04:34:56.938Z,72.81
2023-04-19T04:37:25.670Z,72.25
2023-04-19T04:39:54.308Z,71.73
2023-04-19T04:42:23.074Z,72.06
2023-04-19T04:44:52.334Z,72.07
2023-04-19T04:47:21.259Z,72.03
2023-04-19T04:49:50.529Z,72.06
2023-04-19T04:52:19.189Z,71.79
2023-04-19T04:54:47.841Z,71.85
2023-04-19T04:57:16.506Z,72.13
2023-04-19T04:59:46.414Z,72.14
2023-04-19T05:02:15.424Z,72.20
2023-04-19T05:04:44.637Z,71.91
2023-04-19T05:07:13.585Z,71.71
2023-04-19T05:09:42.243Z,71.69
2023-04-19T05:12:10.876Z,71.51
2023-04-19T05:14:39.541Z,71.17
2023-04-19T05:17:08.182Z,70.98
2023-04-19T05:19:36.910Z,70.93
2023-04-19T05:22:05.725Z,71.26
2023-04-19T05:24:34.406Z,71.30
2023-04-19T05:27:03.180Z,71.33
2023-04-19T05:29:32.539Z,71.22
2023-04-19T05:32:01.174Z,71.09
2023-04-19T05:34:30.435Z,71.25
2023-04-19T05:36:59.383Z,71.26
2023-04-19T05:39:28.037Z,70.81
2023-04-19T05:41:56.750Z,70.97
2023-04-19T05:44:25.716Z,70.45
2023-04-19T05:46:54.341Z,69.86
2023-04-19T05:49:23.048Z,69.53
2023-04-19T05:51:51.754Z,69.53
2023-04-19T05:54:21.098Z,69.64
2023-04-19T05:56:49.802Z,69.88
2023-04-19T05:59:18.500Z,69.40
2023-04-19T06:01:47.239Z,69.23
2023-04-19T06:04:16.371Z,69.29
2023-04-19T06:06:45.488Z,68.84
2023-04-19T06:09:15.076Z,68.26
2023-04-19T06:11:50.534Z,68.41
2023-04-19T06:14:19.899Z,68.71
2023-04-19T06:16:48.754Z,69.04
2023-04-19T06:19:17.480Z,69.12
2023-04-19T06:21:46.314Z,69.35
2023-04-19T06:24:15.170Z,69.19
2023-04-19T06:26:43.995Z,68.55
2023-04-19T06:29:12.636Z,69.17
2023-04-19T06:31:41.488Z,69.46
2023-04-19T06:34:11.109Z,69.98
2023-04-19T06:36:39.898Z,69.87
2023-04-19T06:39:08.566Z,70.05
2023-04-19T06:41:37.231Z,69.77
2023-04-19T06:44:06.031Z,69.16
2023-04-19T06:46:34.703Z,69.03
2023-04-19T06:49:03.437Z,68.64
2023-04-19T06:51:33.431Z,69.49
2023-04-19T06:54:02.113Z,69.72
2023-04-19T06:56:47.574Z,69.84
2023-04-19T06:59:20.979Z,70.05
2023-04-19T07:01:49.862Z,70.84
2023-04-19T07:04:19.109Z,72.07
2023-04-19T07:06:50.074Z,73.53
2023-04-19T07:09:18.748Z,74.76
2023-04-19T07:11:48.437Z,75.72
2023-04-19T07:14:19.329Z,76.64
2023-04-19T07:16:48.487Z,76.63
2023-04-19T07:19:20.560Z,76.51
2023-04-19T07:21:50.102Z,76.73
2023-04-19T07:24:18.798Z,77.02
2023-04-19T07:26:47.558Z,77.41
2023-04-19T07:29:16.236Z,78.68
2023-04-19T07:31:45.052Z,79.07
2023-04-19T07:34:14.131Z,79.56
2023-04-19T07:36:43.069Z,80.20
2023-04-19T07:39:12.031Z,80.43
2023-04-19T07:41:40.736Z,80.04
2023-04-19T07:44:09.377Z,79.82
2023-04-19T07:46:38.038Z,80.38
2023-04-19T07:49:06.796Z,80.59
2023-04-19T07:51:35.431Z,80.36
2023-04-19T07:54:04.157Z,80.76
2023-04-19T07:56:33.753Z,80.90
2023-04-19T07:59:08.499Z,80.74
2023-04-19T08:01:38.384Z,79.11
2023-04-19T08:04:08.062Z,78.65
2023-04-19T08:06:39.896Z,78.80
2023-04-19T08:09:08.652Z,77.82
2023-04-19T08:11:37.398Z,78.51
2023-04-19T08:14:15.194Z,79.46
2023-04-19T08:19:26.324Z,79.95
2023-04-19T08:21:54.945Z,79.37
2023-04-19T08:24:23.609Z,79.12
2023-04-19T08:26:54.946Z,79.96
2023-04-19T08:29:23.684Z,80.79
2023-04-19T08:31:52.501Z,81.57
2023-04-19T08:34:21.217Z,81.70
2023-04-19T08:36:59.959Z,81.86
2023-04-19T08:39:34.139Z,82.14
2023-04-19T08:42:13.179Z,82.28
2023-04-19T08:45:09.489Z,82.32
2023-04-19T08:47:48.206Z,82.50
2023-04-19T08:50:33.342Z,82.10
2023-04-19T08:53:21.113Z,82.69
2023-04-19T08:56:12.760Z,82.41
2023-04-19T08:59:00.394Z,82.26
2023-04-19T09:01:35.962Z,83.02
2023-04-19T09:04:27.185Z,83.39
2023-04-19T09:06:56.966Z,83.86
2023-04-19T09:12:00.698Z,84.80
2023-04-19T09:14:29.972Z,84.80
2023-04-19T09:17:15.858Z,84.39
2023-04-19T09:19:50.602Z,84.30
2023-04-19T09:22:19.655Z,84.57
2023-04-19T09:27:34.822Z,84.21
2023-04-19T09:30:04.863Z,82.96
2023-04-19T09:32:47.105Z,83.13
2023-04-19T09:35:16.143Z,83.13
2023-04-19T09:38:05.434Z,84.01
2023-04-19T09:40:35.564Z,84.97
2023-04-19T09:43:20.665Z,83.81
2023-04-19T09:45:53.049Z,84.37
2023-04-19T09:48:23.090Z,84.24
2023-04-19T09:51:03.313Z,84.55
2023-04-19T09:53:35.709Z,84.53
2023-04-19T09:56:06.346Z,84.69
2023-04-19T09:58:46.914Z,85.08
2023-04-19T10:01:20.130Z,85.24
2023-04-19T10:03:50.967Z,85.10
2023-04-19T10:08:54.742Z,85.27
2023-04-19T10:11:27.660Z,85.46
2023-04-19T10:14:19.902Z,85.77
2023-04-19T10:16:48.778Z,86.16
2023-04-19T10:19:20.180Z,86.18
2023-04-19T10:21:51.328Z,86.27
2023-04-19T10:24:21.531Z,85.90
2023-04-19T10:27:13.085Z,86.39
2023-04-19T10:30:05.069Z,86.55
2023-04-19T10:32:43.364Z,86.36
2023-04-19T10:35:29.433Z,86.58
2023-04-19T10:38:16.605Z,86.95
2023-04-19T10:40:51.849Z,86.67
2023-04-19T10:43:21.322Z,86.13
2023-04-19T10:45:50.089Z,85.93
2023-04-19T10:48:33.194Z,85.29
2023-04-19T10:51:04.972Z,85.06
2023-04-19T10:53:49.570Z,85.19
2023-04-19T10:56:21.137Z,85.10
2023-04-19T10:59:13.580Z,84.90
2023-04-19T11:02:03.055Z,84.69
2023-04-19T11:04:32.133Z,84.58
2023-04-19T11:07:03.568Z,84.62
2023-04-19T11:09:34.873Z,84.35
2023-04-19T11:12:05.668Z,84.18
2023-04-19T11:14:41.334Z,84.46
2023-04-19T11:17:16.892Z,84.38
2023-04-19T11:20:00.055Z,84.49
2023-04-19T11:22:36.670Z,84.90
2023-04-19T11:25:21.923Z,85.34
2023-04-19T11:27:53.170Z,85.40
2023-04-19T11:30:28.802Z,84.42
2023-04-19T11:32:57.936Z,84.34
2023-04-19T11:35:28.751Z,84.42
2023-04-19T11:37:59.267Z,84.66
2023-04-19T11:40:28.019Z,84.58
2023-04-19T11:43:02.184Z,83.54
2023-04-19T11:45:39.531Z,83.10
2023-04-19T11:48:15.940Z,82.92
2023-04-19T11:50:45.705Z,82.99
2023-04-19T11:53:18.410Z,83.43
2023-04-19T11:55:51.226Z,83.05
2023-04-19T11:58:29.846Z,83.66
2023-04-19T12:01:10.328Z,83.64
2023-04-19T12:03:53.556Z,83.78
2023-04-19T12:06:31.983Z,83.02
2023-04-19T12:09:00.666Z,83.01
2023-04-19T12:11:44.803Z,83.05
2023-04-19T12:14:16.675Z,83.17
2023-04-19T12:16:46.072Z,83.27
2023-04-19T12:19:18.055Z,82.78
2023-04-19T12:21:47.726Z,83.06
2023-04-19T12:24:16.891Z,82.62
2023-04-19T12:27:00.018Z,82.31
2023-04-19T12:29:30.862Z,82.20
2023-04-19T12:32:00.536Z,82.13
2023-04-19T12:34:29.422Z,82.54
2023-04-19T12:36:58.298Z,82.01
2023-04-19T12:39:27.012Z,81.58
2023-04-19T12:41:56.635Z,82.13
2023-04-19T12:44:25.519Z,82.09
2023-04-19T12:46:57.739Z,81.85
2023-04-19T12:49:26.869Z,82.24
2023-04-19T12:51:57.389Z,82.07
2023-04-19T12:54:26.479Z,81.79
2023-04-19T12:56:56.181Z,81.94
2023-04-19T12:59:24.857Z,81.99
2023-04-19T13:01:53.668Z,82.18
2023-04-19T13:04:23.151Z,81.82
2023-04-19T13:06:52.536Z,82.05
2023-04-19T13:09:21.345Z,82.78
2023-04-19T13:11:50.408Z,82.61
2023-04-19T13:14:19.189Z,82.34
2023-04-19T13:16:48.014Z,81.73
2023-04-19T13:19:16.659Z,81.89
2023-04-19T13:21:45.474Z,82.87
2023-04-19T13:24:14.380Z,82.32
2023-04-19T13:26:46.005Z,82.50
2023-04-19T13:29:14.894Z,82.52
2023-04-19T13:31:43.947Z,82.72
2023-04-19T13:34:12.866Z,82.44
2023-04-19T13:36:42.003Z,82.18
2023-04-19T13:39:10.759Z,82.17
2023-04-19T13:41:39.425Z,82.61
2023-04-19T13:44:08.108Z,82.32
2023-04-19T13:46:36.815Z,82.93
2023-04-19T13:49:05.472Z,82.91
2023-04-19T13:51:46.385Z,82.48
2023-04-19T13:54:19.810Z,83.38
2023-04-19T13:56:51.968Z,83.25
2023-04-19T13:59:21.843Z,83.71
2023-04-19T14:01:50.525Z,83.19
2023-04-19T14:04:19.984Z,82.21
2023-04-19T14:06:49.325Z,81.82
2023-04-19T14:09:18.266Z,81.53
2023-04-19T14:11:48.846Z,82.05
2023-04-19T14:14:18.077Z,82.23
2023-04-19T14:16:47.099Z,82.43
2023-04-19T14:19:15.901Z,82.95
2023-04-19T14:21:44.551Z,83.31
2023-04-19T14:24:13.237Z,82.52
2023-04-19T14:26:41.896Z,82.33
2023-04-19T14:29:10.661Z,81.95
2023-04-19T14:31:39.320Z,82.02
2023-04-19T14:34:08.018Z,82.68
2023-04-19T14:36:36.800Z,81.97
2023-04-19T14:39:06.217Z,82.67
2023-04-19T14:41:34.869Z,82.06
2023-04-19T14:44:03.567Z,81.64
2023-04-19T14:46:32.295Z,81.07
2023-04-19T14:49:03.987Z,81.26
2023-04-19T14:51:32.942Z,82.00
2023-04-19T14:54:01.608Z,81.55
2023-04-19T14:56:30.885Z,81.07
2023-04-19T14:58:59.906Z,82.05
2023-04-19T15:01:28.570Z,82.85
2023-04-19T15:03:57.526Z,82.39
2023-04-19T15:06:26.420Z,81.85
2023-04-19T15:08:55.149Z,82.88
2023-04-19T15:11:23.840Z,82.64
2023-04-19T15:13:52.523Z,82.62
2023-04-19T15:16:21.261Z,81.93
2023-04-19T15:18:50.423Z,82.22
2023-04-19T15:21:22.219Z,82.17
2023-04-19T15:23:52.398Z,82.37
2023-04-19T15:26:21.739Z,82.21
2023-04-19T15:28:50.461Z,82.48
2023-04-19T15:31:19.197Z,82.64
2023-04-19T15:33:47.907Z,82.85
2023-04-19T15:36:16.568Z,84.13
2023-04-19T15:38:45.318Z,84.58
2023-04-19T15:41:14.011Z,84.33
2023-04-19T15:43:42.670Z,83.54
2023-04-19T15:46:15.940Z,82.47
2023-04-19T15:48:46.927Z,83.61
2023-04-19T15:51:16.124Z,84.14
2023-04-19T15:53:44.896Z,84.24
2023-04-19T15:56:13.575Z,83.67
2023-04-19T15:58:42.277Z,83.42
2023-04-19T16:01:12.322Z,83.97
2023-04-19T16:03:41.378Z,84.79
2023-04-19T16:06:10.554Z,85.11
2023-04-19T16:08:39.523Z,84.82
2023-04-19T16:11:08.312Z,84.77
2023-04-19T16:13:37.063Z,85.21
2023-04-19T16:16:06.080Z,85.63
2023-04-19T16:18:34.776Z,85.34
2023-04-19T16:21:03.847Z,84.91
2023-04-19T16:23:32.567Z,85.34
2023-04-19T16:26:01.291Z,84.75
2023-04-19T16:28:29.988Z,84.38
2023-04-19T16:30:58.640Z,85.69
2023-04-19T16:33:27.613Z,86.40
2023-04-19T16:35:56.302Z,86.41
2023-04-19T16:38:24.959Z,86.23
2023-04-19T16:40:54.824Z,86.09
2023-04-19T16:43:23.686Z,85.45
2023-04-19T16:45:52.428Z,85.46
2023-04-19T16:48:21.281Z,86.54
2023-04-19T16:50:50.010Z,87.29
2023-04-19T16:53:18.731Z,87.64
2023-04-19T16:55:47.485Z,87.14
2023-04-19T16:58:16.231Z,86.75
2023-04-19T17:00:44.862Z,86.86
2023-04-19T17:03:14.451Z,86.82
2023-04-19T17:05:43.355Z,87.12
2023-04-19T17:08:12.174Z,86.92
2023-04-19T17:10:40.838Z,87.34
2023-04-19T17:13:09.618Z,86.86
2023-04-19T17:15:38.742Z,86.93
2023-04-19T17:18:07.553Z,87.56
2023-04-19T17:20:36.316Z,87.08
2023-04-19T17:23:05.013Z,86.90
2023-04-19T17:25:33.665Z,86.63
2023-04-19T17:28:03.629Z,86.45
2023-04-19T17:30:32.589Z,86.87
2023-04-19T17:33:01.357Z,87.59
2023-04-19T17:35:30.207Z,87.17
2023-04-19T17:37:58.914Z,87.09
2023-04-19T17:40:29.246Z,87.45
2023-04-19T17:42:58.475Z,87.97
2023-04-19T17:45:27.313Z,88.22
2023-04-19T17:47:56.405Z,88.50
2023-04-19T17:50:26.380Z,88.06
2023-04-19T17:52:55.157Z,87.75
2023-04-19T17:55:25.431Z,87.34
2023-04-19T17:57:54.244Z,86.96
2023-04-19T18:00:22.980Z,87.54
2023-04-19T18:02:51.870Z,87.94
2023-04-19T18:05:20.980Z,88.89
2023-04-19T18:07:49.711Z,89.03
2023-04-19T18:10:18.499Z,88.72
2023-04-19T18:12:47.175Z,87.89
2023-04-19T18:15:16.032Z,87.94
2023-04-19T18:17:44.742Z,88.39
2023-04-19T18:20:13.980Z,88.59
2023-04-19T18:22:42.821Z,88.98
2023-04-19T18:25:11.524Z,88.81
2023-04-19T18:27:40.285Z,88.79
2023-04-19T18:30:09.359Z,88.49
2023-04-19T18:32:38.239Z,88.55
2023-04-19T18:35:09.954Z,88.70
2023-04-19T18:37:39.235Z,88.90
2023-04-19T18:40:08.539Z,88.41
2023-04-19T18:42:37.217Z,87.90
2023-04-19T18:45:07.159Z,87.89
2023-04-19T18:47:35.922Z,87.62
2023-04-19T18:50:06.637Z,87.63
2023-04-19T18:52:39.053Z,87.82
2023-04-19T18:55:08.576Z,87.99
2023-04-19T18:57:39.046Z,88.30
2023-04-19T19:00:11.357Z,88.12
2023-04-19T19:02:41.185Z,87.60
2023-04-19T19:05:13.469Z,87.17
2023-04-19T19:07:43.024Z,87.03
2023-04-19T19:10:18.335Z,87.57
2023-04-19T19:12:50.875Z,87.78
2023-04-19T19:15:19.808Z,88.03
2023-04-19T19:17:50.186Z,87.48
2023-04-19T19:20:19.983Z,87.16
2023-04-19T19:22:49.019Z,87.47
2023-04-19T19:25:17.976Z,87.20
2023-04-19T19:28:05.448Z,87.01
2023-04-19T19:30:39.728Z,87.52
2023-04-19T19:33:08.875Z,87.80
2023-04-19T19:38:07.445Z,87.55
2023-04-19T19:40:53.154Z,87.51
2023-04-19T19:43:25.292Z,87.84
2023-04-19T19:45:53.979Z,87.98
2023-04-19T19:48:22.853Z,88.15
2023-04-19T19:51:12.932Z,88.23
2023-04-19T19:53:40.537Z,88.58
2023-04-19T19:56:18.306Z,88.34
2023-04-19T19:58:52.157Z,87.81
2023-04-19T20:01:22.616Z,87.72
2023-04-19T20:03:54.886Z,88.05
2023-04-19T20:08:57.390Z,88.11
2023-04-19T20:11:26.365Z,88.41
2023-04-19T20:13:55.051Z,88.35
2023-04-19T20:16:24.417Z,88.14
2023-04-19T20:18:54.521Z,88.07
2023-04-19T20:21:23.526Z,87.91
2023-04-19T20:23:52.692Z,88.04
2023-04-19T20:26:21.341Z,87.77
2023-04-19T20:28:49.997Z,87.84
2023-04-19T20:31:18.747Z,87.64
2023-04-19T20:33:47.515Z,87.96
2023-04-19T20:36:16.505Z,87.98
2023-04-19T20:38:45.211Z,88.23
2023-04-19T20:41:13.998Z,88.15
2023-04-19T20:43:42.776Z,87.80
2023-04-19T20:46:11.549Z,88.04
2023-04-19T20:48:40.347Z,88.02
2023-04-19T20:51:09.012Z,87.91
2023-04-19T20:53:37.682Z,88.08
2023-04-19T20:56:06.639Z,88.21
2023-04-19T20:58:35.956Z,88.29
2023-04-19T21:01:04.712Z,88.03
2023-04-19T21:03:33.865Z,87.84
2023-04-19T21:06:02.667Z,87.61
2023-04-19T21:08:31.332Z,87.74
2023-04-19T21:11:00.083Z,87.62
2023-04-19T21:13:28.955Z,87.35
2023-04-19T21:15:57.840Z,87.55
2023-04-19T21:18:29.771Z,87.86
2023-04-19T21:20:58.774Z,88.21
2023-04-19T21:23:27.741Z,88.60
2023-04-19T21:25:56.414Z,88.69
2023-04-19T21:28:25.164Z,88.81
2023-04-19T21:30:53.860Z,88.78
2023-04-19T21:33:22.527Z,88.60
2023-04-19T21:35:51.276Z,88.17
2023-04-19T21:38:20.193Z,88.08
2023-04-19T21:40:49.503Z,88.41
2023-04-19T21:43:18.164Z,88.33
2023-04-19T21:45:46.791Z,88.26
2023-04-19T21:48:15.453Z,88.49
2023-04-19T21:50:44.221Z,88.47
2023-04-19T21:53:12.904Z,88.43
2023-04-19T21:55:41.562Z,88.58
2023-04-19T21:58:10.557Z,88.75
2023-04-19T22:00:39.665Z,89.00
2023-04-19T22:03:08.751Z,89.10
2023-04-19T22:05:37.627Z,88.77
2023-04-19T22:08:07.026Z,88.23
2023-04-19T22:10:35.688Z,87.80
2023-04-19T22:13:05.046Z,87.52
2023-04-19T22:15:33.692Z,87.44
2023-04-19T22:18:03.373Z,87.63
2023-04-19T22:20:33.778Z,87.90
2023-04-19T22:23:02.616Z,87.86
2023-04-19T22:25:31.308Z,87.93
2023-04-19T22:27:59.993Z,88.09
2023-04-19T22:30:28.651Z,87.93
2023-04-19T22:32:57.317Z,88.07
2023-04-19T22:35:26.023Z,87.74
2023-04-19T22:37:54.715Z,87.53
2023-04-19T22:40:23.490Z,87.56
2023-04-19T22:42:52.157Z,87.91
2023-04-19T22:45:20.838Z,87.92
2023-04-19T22:47:49.509Z,88.17
2023-04-19T22:50:18.349Z,88.35
2023-04-19T22:52:47.007Z,88.86
2023-04-19T22:55:15.718Z,88.77
2023-04-19T22:57:44.789Z,88.95
2023-04-19T23:00:13.750Z,88.84
2023-04-19T23:02:42.538Z,88.66
2023-04-19T23:05:11.550Z,88.20
2023-04-19T23:07:42.008Z,88.23
2023-04-19T23:10:12.400Z,88.02
2023-04-19T23:12:41.058Z,87.70
2023-04-19T23:15:11.208Z,87.29
2023-04-19T23:17:39.953Z,87.43
2023-04-19T23:20:11.323Z,87.52
2023-04-19T23:22:40.227Z,87.78
2023-04-19T23:25:09.618Z,87.89
2023-04-19T23:27:38.363Z,88.16
2023-04-19T23:30:07.715Z,87.79
2023-04-19T23:32:36.481Z,87.94
2023-04-19T23:35:05.766Z,87.58
2023-04-19T23:37:34.421Z,88.30
2023-04-19T23:40:04.542Z,88.26
2023-04-19T23:42:33.439Z,88.28
2023-04-19T23:45:02.107Z,87.96
2023-04-19T23:47:31.045Z,88.28
2023-04-19T23:49:59.995Z,88.23
2023-04-19T23:52:28.648Z,87.97
2023-04-19T23:54:57.285Z,87.74
2023-04-19T23:57:26.082Z,88.01
2023-04-19T23:59:54.746Z,88.22
